Branch, Michigan
Current Conditions -  °F | °C
As of 9:55 AM on Sunday 23 Nov 2014 (Local Time) from KLDM Reporting Station
Overcast Overcast  
Wind Chill: 44°   Ceiling: 1700
Heat Index: 49°   Visibility: 10mi
Dew Point: 45°   Wind: 15mph
Humidity: 86%   Direction: 190°S
Pressure: 29.76"   Gusts: 25mph
Location:  43.92°N, 86.07°W
Report Text: KLDM 231455Z AUTO 19013G22KT 10SM OVC017 10/07 A2976 RMK AO2 T00960073
Loading
Personal Weather Stations






























Interactive Weather Map New forecast layout! Learn more

10-Day Weather Forecast

Advertisements
Track Severe Weather on mobile